createdAt,value
2023-03-13T00:01:56.865Z,450.00
2023-03-13T00:05:56.848Z,445.00
2023-03-13T00:09:56.945Z,451.00
2023-03-13T00:13:57.026Z,452.00
2023-03-13T00:17:57.042Z,442.00
2023-03-13T00:21:57.059Z,449.00
2023-03-13T00:25:57.095Z,454.00
2023-03-13T00:29:57.140Z,456.00
2023-03-13T00:33:57.297Z,453.00
2023-03-13T00:37:57.204Z,458.00
2023-03-13T00:41:57.227Z,450.00
2023-03-13T00:45:57.247Z,453.00
2023-03-13T00:49:57.370Z,454.00
2023-03-13T00:53:57.386Z,456.00
2023-03-13T00:57:57.459Z,454.00
2023-03-13T01:01:57.510Z,454.00
2023-03-13T01:05:57.420Z,459.00
2023-03-13T01:09:57.477Z,456.00
2023-03-13T01:13:57.531Z,456.00
2023-03-13T01:17:57.582Z,459.00
2023-03-13T01:21:57.617Z,462.00
2023-03-13T01:25:57.634Z,459.00
2023-03-13T01:29:57.708Z,461.00
2023-03-13T01:33:57.698Z,456.00
2023-03-13T01:37:57.652Z,453.00
2023-03-13T01:41:57.684Z,454.00
2023-03-13T01:45:57.786Z,453.00
2023-03-13T01:49:57.753Z,458.00
2023-03-13T01:53:57.816Z,463.00
2023-03-13T01:57:57.846Z,460.00
2023-03-13T02:01:57.862Z,460.00
2023-03-13T02:05:57.889Z,461.00
2023-03-13T02:09:57.870Z,458.00
2023-03-13T02:13:57.879Z,458.00
2023-03-13T02:17:57.853Z,457.00
2023-03-13T02:21:57.829Z,457.00
2023-03-13T02:25:57.847Z,451.00
2023-03-13T02:29:57.835Z,455.00
2023-03-13T02:33:57.813Z,451.00
2023-03-13T02:37:57.799Z,452.00
2023-03-13T02:41:57.802Z,459.00
2023-03-13T02:45:57.795Z,454.00
2023-03-13T02:49:57.729Z,452.00
2023-03-13T02:53:57.737Z,451.00
2023-03-13T02:57:57.713Z,449.00
2023-03-13T03:01:57.741Z,452.00
2023-03-13T03:05:57.701Z,460.00
2023-03-13T03:09:57.682Z,455.00
2023-03-13T03:13:57.669Z,457.00
2023-03-13T03:17:57.655Z,457.00
2023-03-13T03:21:57.654Z,458.00
2023-03-13T03:25:57.596Z,461.00
2023-03-13T03:29:57.607Z,458.00
2023-03-13T03:33:57.580Z,455.00
2023-03-13T03:37:57.577Z,459.00
2023-03-13T03:41:57.542Z,452.00
2023-03-13T03:45:57.549Z,456.00
2023-03-13T03:49:57.511Z,453.00
2023-03-13T03:53:57.492Z,454.00
2023-03-13T03:57:57.462Z,457.00
2023-03-13T04:01:57.466Z,461.00
2023-03-13T04:05:57.427Z,458.00
2023-03-13T04:09:57.401Z,455.00
2023-03-13T04:13:57.410Z,455.00
2023-03-13T04:17:57.394Z,454.00
2023-03-13T04:21:57.351Z,449.00
2023-03-13T04:25:57.374Z,451.00
2023-03-13T04:29:57.348Z,452.00
2023-03-13T04:33:57.319Z,456.00
2023-03-13T04:37:57.314Z,451.00
2023-03-13T04:41:57.283Z,451.00
2023-03-13T04:45:57.283Z,447.00
2023-03-13T04:49:57.265Z,452.00
2023-03-13T04:53:57.274Z,453.00
2023-03-13T04:57:57.247Z,455.00
2023-03-13T05:01:57.231Z,452.00
2023-03-13T05:05:57.190Z,451.00
2023-03-13T05:09:57.171Z,458.00
2023-03-13T05:13:57.145Z,453.00
2023-03-13T05:17:57.192Z,452.00
2023-03-13T05:21:57.103Z,451.00
2023-03-13T05:25:57.098Z,455.00
2023-03-13T05:29:57.086Z,457.00
2023-03-13T05:33:57.063Z,454.00
2023-03-13T05:37:57.026Z,452.00
2023-03-13T05:41:57.031Z,447.00
2023-03-13T05:45:57.025Z,457.00
2023-03-13T05:49:57.021Z,457.00
2023-03-13T05:53:57.013Z,458.00
2023-03-13T05:57:56.978Z,457.00
2023-03-13T06:01:56.941Z,463.00
2023-03-13T06:05:56.964Z,458.00
2023-03-13T06:09:56.982Z,461.00
2023-03-13T06:13:56.915Z,463.00
2023-03-13T06:17:56.922Z,457.00
2023-03-13T06:21:56.898Z,459.00
2023-03-13T06:25:57.075Z,457.00
2023-03-13T06:29:56.912Z,489.00
2023-03-13T06:33:57.126Z,508.00
2023-03-13T06:37:57.082Z,528.00
2023-03-13T06:41:57.184Z,680.00
2023-03-13T06:45:57.683Z,646.00
2023-03-13T06:49:57.398Z,604.00
2023-03-13T06:53:57.625Z,589.00
2023-03-13T06:57:57.825Z,582.00
2023-03-13T07:01:57.985Z,581.00
2023-03-13T07:05:58.129Z,578.00
2023-03-13T07:09:58.221Z,564.00
2023-03-13T07:14:13.441Z,561.00
2023-03-13T07:17:59.609Z,559.00
2023-03-13T07:21:58.613Z,554.00
2023-03-13T07:25:58.137Z,547.00
2023-03-13T07:29:58.159Z,545.00
2023-03-13T07:33:58.063Z,541.00
2023-03-13T07:37:58.054Z,550.00
2023-03-13T07:41:58.174Z,564.00
2023-03-13T07:45:58.148Z,633.00
2023-03-13T07:49:58.037Z,644.00
2023-03-13T07:53:57.927Z,654.00
2023-03-13T07:57:57.943Z,673.00
2023-03-13T08:01:57.873Z,694.00
2023-03-13T08:05:57.831Z,700.00
2023-03-13T08:09:57.924Z,725.00
2023-03-13T08:13:58.161Z,740.00
2023-03-13T08:17:57.734Z,787.00
2023-03-13T08:21:58.129Z,778.00
2023-03-13T08:30:16.748Z,615.00
2023-03-13T08:34:16.748Z,528.00
2023-03-13T08:38:16.409Z,523.00
2023-03-13T08:42:16.762Z,532.00
2023-03-13T08:46:18.532Z,542.00
2023-03-13T08:50:16.763Z,545.00
2023-03-13T08:54:16.408Z,559.00
2023-03-13T08:58:16.898Z,595.00
2023-03-13T09:02:16.348Z,618.00
2023-03-13T09:06:16.750Z,834.00
2023-03-13T09:10:16.282Z,743.00
2023-03-13T09:14:16.233Z,811.00
2023-03-13T09:18:16.324Z,929.00
